Metar Cercanos

 

LEPA - Palma De Mallorc, Spain
Distance from station: ONO 38km
Actualización: Fri, 23-Jul-2021 9:30pm CEST
Despejado
Despejado
 Viento del SSE
Viento: SSE 9 km/h
Temperatura: 31°C
Indice Calor: 33°C
Rocío: 20°C
Humedad: 52%
Barómetro: 1010 hPa
Resumen: Despejado
Visibility: greater than 10 km
2021/07/23 19:30 LEPA 231930Z 16005KT 120V190 CAVOK 31/20 Q1010 NOSIG
LEMH - Mahon/Menorca Is, Spain
Distance from station: ENE 105km
Actualización: Fri, 23-Jul-2021 9:30pm CEST
Despejado
Despejado
 Viento del SE
Viento: SE 13 km/h
Temperatura: 27°C
Indice Calor: 28°C
Rocío: 19°C
Humedad: 62%
Barómetro: 1012 hPa
Resumen: Despejado
Visibility: greater than 10 km
2021/07/23 19:30 LEMH 231930Z 13007KT CAVOK 27/19 Q1012
 
LEIB - Ibiza/Es Codola, Spain
Distance from station: OSO 165km
Actualización: Fri, 23-Jul-2021 9:30pm CEST
Despejado
Despejado
 Viento del E
Viento: E 7 km/h
Temperatura: 26°C
Rocío: 24°C
Humedad: 89%
Barómetro: 1010 hPa
Resumen: Despejado
Visibility: greater than 10 km
2021/07/23 19:30 LEIB 231930Z 10004KT 060V130 CAVOK 26/24 Q1010 NOSIG
LEBL - Barcelona Airpor, Spain
Distance from station: NNO 225km
Actualización: Fri, 23-Jul-2021 9:30pm CEST
Despejado
Despejado
 Viento del varies
Viento: varies 4 km/h
Temperatura: 27°C
Indice Calor: 29°C
Rocío: 22°C
Humedad: 74%
Barómetro: 1010 hPa
Resumen: Despejado
Visibility: greater than 10 km
2021/07/23 19:30 LEBL 231930Z VRB02KT CAVOK 27/22 Q1010 NOSIG
 
LEVC - Valencia (civ/Mi, Spain
Distance from station: NO 188km
Actualización: Fri, 23-Jul-2021 9:30pm CEST
Few Clouds
Few Clouds
 Viento del ENE
Viento: ENE 15 km/h
Temperatura: 27°C
Indice Calor: 30°C
Rocío: 23°C
Humedad: 79%
Barómetro: 1009 hPa
Clouds: Few Clouds
Visibility: 10 km
Cloud details: Few Clouds 610 m
2021/07/23 19:30 LEVC 231930Z 07008KT 040V100 9999 FEW020 27/23 Q1009 NOSIG
LEGE - Gerona/Costa Bra, Spain
Distance from station: N 276km
Actualización: Fri, 23-Jul-2021 9:30pm CEST
Despejado
Despejado
 Viento del SSO
Viento: SSO 15 km/h
Temperatura: 26°C
Rocío: 18°C
Humedad: 61%
Barómetro: 1010 hPa
Resumen: Despejado
Visibility: greater than 10 km
2021/07/23 19:30 LEGE 231930Z 20008KT CAVOK 26/18 Q1010
 
LEAL - Alicante/El Alte, Spain
Distance from station: OSO 344km
Actualización: Fri, 23-Jul-2021 9:30pm CEST
Despejado
Despejado
 Viento del varies
Viento: varies 4 km/h
Temperatura: 28°C
Indice Calor: 30°C
Rocío: 22°C
Humedad: 70%
Barómetro: 1009 hPa
Resumen: Despejado
Visibility: greater than 10 km
2021/07/23 19:30 LEAL 231930Z VRB02KT CAVOK 28/22 Q1009 NOSIG
LEAM - Almeria Airport, Spain
Distance from station: SSO 56km
Actualización: Fri, 23-Jul-2021 9:30pm CEST
Despejado
Despejado
 Viento del varies
Viento: varies 2 km/h
Temperatura: 26°C
Rocío: 24°C
Humedad: 89%
Barómetro: 1010 hPa
Resumen: Despejado
Visibility: greater than 10 km
2021/07/23 19:30 LEAM 231930Z VRB01KT CAVOK 26/24 Q1010
 
LEZG - Zaragoza (mil/Ci, Spain
Distance from station: NO 431km
Actualización: Fri, 23-Jul-2021 9:30pm CEST
Despejado
Despejado
 Viento del NO
Viento: NO 26 km/h
Temperatura: 30°C
Rocío: 14°C
Humedad: 38%
Barómetro: 1008 hPa
Resumen: Despejado
Visibility: greater than 10 km
2021/07/23 19:30 LEZG 231930Z 31014KT 280V340 CAVOK 30/14 Q1008
LEMD - Madrid/Barajas, Spain
Distance from station: ONO 234km
Actualización: Fri, 23-Jul-2021 9:30pm CEST
Despejado
Despejado
 Viento del SO
Viento: SO 24 km/h
Temperatura: 31°C
Rocío: 1°C
Humedad: 15%
Barómetro: 1012 hPa
Resumen: Despejado
Visibility: greater than 10 km
2021/07/23 19:30 LEMD 231930Z 23013KT CAVOK 31/01 Q1012 NOSIG
 
LEGR - Granada Airport, Spain
Distance from station: OSO 62km
Actualización: Fri, 23-Jul-2021 9:30pm CEST
Despejado
Despejado
 Viento del OSO
Viento: OSO 7 km/h
Temperatura: 35°C
Rocío: 10°C
Humedad: 22%
Barómetro: 1013 hPa
Resumen: Despejado
Visibility: greater than 10 km
2021/07/23 19:30 LEGR 231930Z 25004KT CAVOK 35/10 Q1013
LEMG - Malaga (civ/Mil), Spain
Distance from station: OSO 227km
Actualización: Fri, 23-Jul-2021 9:30pm CEST
Despejado
Despejado
 Viento del ENE
Viento: ENE 13 km/h
Temperatura: 25°C
Rocío: 22°C
Humedad: 83%
Barómetro: 1010 hPa
Resumen: Despejado
Visibility: greater than 10 km
2021/07/23 19:30 LEMG 231930Z 07007KT CAVOK 25/22 Q1010 NOSIG
 
LEZL - Sevilla (civ/Mil, Spain
Distance from station: S 318km
Actualización: Fri, 23-Jul-2021 9:30pm CEST
Despejado
Despejado
 Viento del O
Viento: O 19 km/h
Temperatura: 35°C
Rocío: 5°C
Humedad: 15%
Barómetro: 1009 hPa
Resumen: Despejado
Visibility: greater than 10 km
2021/07/23 19:30 LEZL 231930Z 26010KT 230V290 CAVOK 35/05 Q1009 NOSIG
LEVT - Vitoria, Spain
Distance from station: NO 226km
Actualización: Fri, 23-Jul-2021 9:30pm CEST
Muy nuboso
Muy nuboso
 Viento del NNE
Viento: NNE 20 km/h
Temperatura: 17°C
Rocío: 14°C
Humedad: 83%
Barómetro: 1014 hPa
Clouds: Muy nuboso
Visibility: 10 km
Cloud details: Few Clouds 762 m
Muy nuboso 1036 m
2021/07/23 19:30 LEVT 231930Z 03011KT 360V060 9999 FEW025 BKN034 17/14 Q1014
 
LEBB - Bilbao/Sondica, Spain
Distance from station: NNO 235km
Actualización: Fri, 23-Jul-2021 9:30pm CEST
Few Clouds
Few Clouds
 Viento del varies
Viento: varies 4 km/h
Temperatura: 20°C
Rocío: 17°C
Humedad: 83%
Barómetro: 1014 hPa
Clouds: Few Clouds
Visibility: 10 km
Cloud details: Few Clouds 610 m
2021/07/23 19:30 LEBB 231930Z VRB02KT 9999 FEW020 20/17 Q1014 NOSIG
LESO - San Sebastian/Fu, Spain
Distance from station: N 231km
Actualización: Fri, 23-Jul-2021 9:30pm CEST
Parcialmente nuboso
Parcialmente nuboso
 Viento del O
Viento: O 6 km/h
Temperatura: 20°C
Rocío: 19°C
Humedad: 94%
Barómetro: 1013 hPa
Clouds: Parcialmente nuboso
Visibility: 10 km
Cloud details: Few Clouds 366 m
Parcialmente nuboso 914 m
2021/07/23 19:30 LESO 231930Z 26003KT 220V310 9999 FEW012 SCT030 20/19 Q1013
 
LEVD - Valladolid(Mil/C, Spain
Distance from station: ONO 239km
Actualización: Fri, 23-Jul-2021 9:30pm CEST
Despejado
Despejado
 Viento del ONO
Viento: ONO 19 km/h
Temperatura: 22°C
Rocío: 6°C
Humedad: 36%
Barómetro: 1014 hPa
Resumen: Despejado
Visibility: greater than 10 km
2021/07/23 19:30 LEVD 231930Z 30010KT 260V330 CAVOK 22/06 Q1014
LESA - Salamanca (civ/M, Spain
Distance from station: ONO 349km
Actualización: Fri, 23-Jul-2021 9:30pm CEST
Despejado
Despejado
 Viento del ONO
Viento: ONO 13 km/h
Temperatura: 20°C
Rocío: 9°C
Humedad: 49%
Barómetro: 1015 hPa
Resumen: Despejado
Visibility: greater than 10 km
2021/07/23 19:30 LESA 231930Z AUTO 30007KT 280V340 CAVOK 20/09 Q1015
 
LEXJ - Santander/Paraya, Spain
Distance from station: NNO 247km
Actualización: Fri, 23-Jul-2021 9:30pm CEST
Muy nuboso
Muy nuboso
 Viento del O
Viento: O 6 km/h
Temperatura: 20°C
Rocío: 16°C
Humedad: 78%
Barómetro: 1013 hPa
Clouds: Muy nuboso
Visibility: 10 km
Cloud details: Few Clouds 1250 m
Muy nuboso 1829 m
2021/07/23 19:30 LEXJ 231930Z 26003KT 230V290 9999 FEW041 BKN060 20/16 Q1013
LEAS - Asturias/Aviles, Spain
Distance from station: NO 214km
Actualización: Fri, 23-Jul-2021 9:42pm CEST
Lluvia débil, Muy nuboso
Lluvia débil, Muy nuboso
 Viento del ONO
Viento: ONO 6 km/h
Temperatura: 17°C
Rocío: 16°C
Humedad: 94%
Barómetro: 1014 hPa
Resumen: Lluvia débil
Clouds: Muy nuboso
Visibility: 10 km
Cloud details: Few Clouds 305 m
Parcialmente nuboso 488 m
Muy nuboso 1219 m
2021/07/23 19:42 LEAS 231942Z 30003KT 270V340 9999 -RA FEW010 SCT016 BKN040 17/16 Q1014 RESHRA TEMPO SHRA SCT030TCU
 
LECO - La Coruna/Alvedr, Spain
Distance from station: ONO 222km
Actualización: Fri, 23-Jul-2021 9:30pm CEST
Muy nuboso
Muy nuboso
 Viento del OSO
Viento: OSO 11 km/h
Temperatura: 19°C
Rocío: 15°C
Humedad: 78%
Barómetro: 1014 hPa
Clouds: Muy nuboso
Visibility: 10 km
Cloud details: Few Clouds 914 m
Muy nuboso 1494 m
2021/07/23 19:30 LECO 231930Z 25006KT 210V310 9999 FEW030 BKN049 19/15 Q1014 NOSIG
LEVX - Vigo/Peinador, Spain
Distance from station: O 214km
Actualización: Fri, 23-Jul-2021 9:30pm CEST
Parcialmente nuboso
Parcialmente nuboso
 Viento del O
Viento: O 11 km/h
Temperatura: 18°C
Rocío: 15°C
Humedad: 83%
Barómetro: 1016 hPa
Clouds: Parcialmente nuboso
Visibility: 10 km
Cloud details: Muy nuboso 427 m
Parcialmente nuboso 792 m
2021/07/23 19:30 LEVX 231930Z 26006KT 220V300 9999 BKN014 SCT026TCU 18/15 Q1016 NOSIG